Time;durP1;ratioP1;P1;durP2;ratioP2;P2;SDS_P1;SDS_P2;PMS_P1;PMS_P2;Temp;Humidity;BMP_temperature;BMP_pressure;BME280_temperature;BME280_humidity;BME280_pressure;Samples;Min_cycle;Max_cycle;Signal;HPM_P1;HPM_P2
2022/08/26 00:01:18;;;;;;;13.32;7.33;;;;;;;16.42;75.12;97143.73;1636083;87;25780;-77
2022/08/26 00:03:45;;;;;;;12.23;7.40;;;;;;;16.36;75.20;97144.73;1636028;87;25825;-78
2022/08/26 00:06:12;;;;;;;14.58;7.40;;;;;;;16.34;75.28;97144.16;1635861;87;25741;-77
2022/08/26 00:08:40;;;;;;;12.68;7.53;;;;;;;16.32;75.28;97140.32;1636061;86;27238;-77
2022/08/26 00:11:07;;;;;;;20.10;7.70;;;;;;;16.30;75.28;97141.11;1635988;87;25816;-78
2022/08/26 00:13:35;;;;;;;12.30;7.03;;;;;;;16.26;75.18;97141.89;1636139;87;25796;-77
2022/08/26 00:16:03;;;;;;;13.80;7.20;;;;;;;16.19;75.26;97136.62;1635937;87;25907;-78
2022/08/26 00:18:30;;;;;;;18.05;7.33;;;;;;;16.12;75.27;97136.00;1636158;87;25788;-78
2022/08/26 00:20:57;;;;;;;13.98;6.67;;;;;;;16.10;75.34;97129.97;1635914;87;27384;-77
2022/08/26 00:23:24;;;;;;;17.82;7.05;;;;;;;16.08;75.42;97134.30;1635839;85;26279;-78
2022/08/26 00:25:52;;;;;;;13.78;7.78;;;;;;;16.08;75.42;97133.48;1635849;87;25792;-79
2022/08/26 00:28:19;;;;;;;15.23;7.25;;;;;;;16.02;75.37;97133.97;1635884;87;25775;-77
2022/08/26 00:33:17;;;;;;;12.60;7.33;;;;;;;15.90;75.42;97127.82;1633611;87;27422;-78
2022/08/26 00:35:44;;;;;;;12.98;6.92;;;;;;;15.87;75.54;97129.68;1633808;87;25720;-77
2022/08/26 00:38:11;;;;;;;17.57;7.35;;;;;;;15.85;75.62;97135.37;1633875;87;25875;-78
2022/08/26 00:40:45;;;;;;;13.50;7.22;;;;;;;15.84;75.54;97138.34;1633654;87;25871;-78
2022/08/26 00:43:13;;;;;;;14.78;7.03;;;;;;;15.74;75.47;97138.20;1633817;87;25862;-78
2022/08/26 00:45:48;;;;;;;12.40;6.75;;;;;;;15.72;75.73;97140.34;1633804;86;28634;-78
2022/08/26 00:48:19;;;;;;;13.95;7.30;;;;;;;15.70;75.73;97138.41;1631874;87;25716;-78
2022/08/26 00:51:04;;;;;;;12.28;6.87;;;;;;;15.66;75.71;97135.91;1694169;82;25838;-78
2022/08/26 00:53:35;;;;;;;13.10;7.12;;;;;;;15.67;75.72;97135.67;1745831;82;25757;-79
2022/08/26 00:56:06;;;;;;;12.58;7.25;;;;;;;15.65;75.76;97138.34;1742261;82;25294;-78
2022/08/26 00:58:37;;;;;;;15.03;7.83;;;;;;;15.65;75.83;97138.34;1745323;82;27512;-79
2022/08/26 01:01:05;;;;;;;18.60;8.15;;;;;;;15.63;75.84;97135.05;1745759;82;25677;-79
2022/08/26 01:03:33;;;;;;;17.75;7.75;;;;;;;15.59;75.98;97135.25;1745342;82;25744;-78
2022/08/26 01:06:02;;;;;;;14.95;8.55;;;;;;;15.56;76.05;97135.23;1745480;82;25800;-78
2022/08/26 01:08:29;;;;;;;10.63;7.42;;;;;;;15.55;76.02;97141.75;1745519;82;25768;-78
2022/08/26 01:10:58;;;;;;;18.82;8.68;;;;;;;15.53;76.03;97138.95;1745372;82;27402;-79
2022/08/26 01:13:26;;;;;;;12.78;7.83;;;;;;;15.43;75.97;97135.55;1745522;82;25713;-77
2022/08/26 01:15:56;;;;;;;13.58;8.23;;;;;;;15.39;76.17;97141.19;1745570;82;25773;-78
2022/08/26 01:18:24;;;;;;;13.85;7.17;;;;;;;15.32;76.19;97140.00;1745608;82;25931;-78
2022/08/26 01:21:22;;;;;;;13.50;7.22;;;;;;;15.30;76.31;97137.23;1745511;82;25841;-77
2022/08/26 01:23:51;;;;;;;16.65;8.20;;;;;;;15.29;76.44;97144.57;1744123;82;28173;-78
2022/08/26 01:26:23;;;;;;;14.10;6.30;;;;;;;15.30;76.43;97149.48;1745445;81;25823;-78
2022/08/26 01:28:54;;;;;;;11.60;6.03;;;;;;;15.29;76.44;97145.93;1675409;85;25872;-79
2022/08/26 01:31:25;;;;;;;12.58;6.58;;;;;;;15.29;76.44;97145.93;1676902;83;25849;-79
2022/08/26 01:34:11;;;;;;;12.63;6.67;;;;;;;15.27;76.29;97145.34;1696520;84;25775;-77
2022/08/26 01:36:39;;;;;;;12.98;6.47;;;;;;;15.26;76.20;97145.06;1696286;83;28329;-78
2022/08/26 01:39:07;;;;;;;11.10;6.45;;;;;;;15.23;76.19;97145.55;1696264;84;25816;-78
2022/08/26 01:41:37;;;;;;;14.07;6.25;;;;;;;15.20;76.28;97148.78;1696465;84;25758;-79
2022/08/26 01:44:08;;;;;;;13.55;6.65;;;;;;;15.19;76.30;97143.05;1696425;84;25763;-79
2022/08/26 01:46:35;;;;;;;14.00;7.12;;;;;;;15.17;76.23;97145.72;1696520;84;25889;-79
2022/08/26 01:49:04;;;;;;;12.88;6.53;;;;;;;15.11;76.26;97146.16;1696391;84;27571;-78
2022/08/26 01:51:37;;;;;;;18.20;7.03;;;;;;;15.09;76.31;97147.77;1696534;84;25917;-79
2022/08/26 01:54:07;;;;;;;10.72;6.58;;;;;;;15.06;76.27;97144.20;1696267;84;25764;-78
2022/08/26 01:56:35;;;;;;;10.98;6.28;;;;;;;15.04;76.40;97144.97;1696553;83;25772;-78
2022/08/26 01:59:06;;;;;;;11.40;6.60;;;;;;;15.03;76.44;97143.86;1696776;84;25700;-79
2022/08/26 02:01:33;;;;;;;12.50;7.03;;;;;;;14.99;76.54;97145.41;1696470;84;27533;-78
2022/08/26 02:04:28;;;;;;;13.05;7.47;;;;;;;14.97;76.52;97146.21;1696163;83;25759;-79
2022/08/26 02:06:56;;;;;;;12.60;6.75;;;;;;;14.95;76.66;97141.55;1696797;84;25764;-79
2022/08/26 02:09:24;;;;;;;13.20;7.15;;;;;;;14.96;76.69;97143.20;1696561;84;25715;-78
2022/08/26 02:11:52;;;;;;;16.02;7.50;;;;;;;14.96;76.63;97141.84;1696527;83;25803;-79
2022/08/26 02:14:23;;;;;;;13.25;7.87;;;;;;;14.95;76.65;97140.19;1696508;84;27561;-78
2022/08/26 02:16:54;;;;;;;16.07;7.65;;;;;;;14.93;76.61;97134.17;1675132;85;25742;-77
2022/08/26 02:19:29;;;;;;;14.55;7.45;;;;;;;14.90;76.65;97138.73;1675171;85;25859;-78
2022/08/26 02:21:58;;;;;;;15.60;8.23;;;;;;;14.86;76.64;97141.11;1675144;84;25764;-78
2022/08/26 02:24:29;;;;;;;15.78;7.55;;;;;;;14.84;76.59;97141.08;1675195;85;25712;-79
2022/08/26 02:26:58;;;;;;;18.70;8.33;;;;;;;14.83;76.61;97135.36;1675280;84;27537;-79
2022/08/26 02:29:30;;;;;;;14.15;8.83;;;;;;;14.81;76.61;97138.85;1675183;85;25818;-77
2022/08/26 02:31:57;;;;;;;19.52;9.60;;;;;;;14.77;76.65;97135.25;1672607;83;25935;-79
2022/08/26 02:34:33;;;;;;;15.95;9.25;;;;;;;14.75;76.67;97133.84;1659651;86;25414;-80
2022/08/26 02:37:05;;;;;;;15.83;9.20;;;;;;;14.73;76.63;97132.73;1690907;84;26516;-80
2022/08/26 02:39:33;;;;;;;16.67;9.60;;;;;;;14.71;76.64;97133.53;1659825;86;28244;-80
2022/08/26 02:42:00;;;;;;;17.62;9.28;;;;;;;14.67;76.61;97133.72;1690856;84;26310;-79
2022/08/26 02:44:27;;;;;;;14.38;9.25;;;;;;;14.64;76.65;97133.38;1659516;86;25752;-79
2022/08/26 02:46:54;;;;;;;16.62;9.75;;;;;;;14.63;76.62;97135.27;1690767;83;25711;-79
2022/08/26 02:49:23;;;;;;;16.45;8.80;;;;;;;14.62;76.64;97135.50;1659755;86;25614;-79
2022/08/26 02:51:51;;;;;;;13.98;9.43;;;;;;;14.59;76.62;97124.61;1691102;84;28068;-81
2022/08/26 02:54:20;;;;;;;16.45;8.43;;;;;;;14.57;76.69;97126.74;1637089;86;25950;-80
2022/08/26 02:56:46;;;;;;;16.77;7.90;;;;;;;14.53;76.73;97124.21;1690986;84;25996;-79
2022/08/26 02:59:14;;;;;;;11.70;8.03;;;;;;;14.52;76.74;97127.99;1659631;86;25838;-79
2022/08/26 03:01:41;;;;;;;12.53;8.23;;;;;;;14.49;76.78;97130.39;1691060;84;25453;-78
2022/08/26 03:04:11;;;;;;;17.85;9.10;;;;;;;14.44;76.72;97125.67;1659442;86;27421;-79
2022/08/26 03:06:38;;;;;;;14.87;8.70;;;;;;;14.34;76.72;97124.09;1691137;84;25759;-79
2022/08/26 03:09:05;;;;;;;14.58;9.10;;;;;;;14.30;77.00;97123.74;1659580;86;25769;-78
2022/08/26 03:11:32;;;;;;;17.50;9.20;;;;;;;14.33;77.15;97127.87;1690860;83;25986;-78
2022/08/26 03:14:00;;;;;;;19.85;10.18;;;;;;;14.32;77.10;97126.22;1659758;85;26031;-79
2022/08/26 03:16:26;;;;;;;17.60;9.63;;;;;;;14.31;77.03;97119.97;1690900;84;28212;-80
2022/08/26 03:18:53;;;;;;;23.52;11.40;;;;;;;14.29;76.95;97118.02;1659632;85;25854;-79
2022/08/26 03:21:20;;;;;;;20.72;10.53;;;;;;;14.27;76.98;97121.51;1730803;81;25778;-78
2022/08/26 03:23:46;;;;;;;26.35;10.82;;;;;;;14.25;77.00;97112.77;1702096;84;25737;-79
2022/08/26 03:26:16;;;;;;;22.58;11.75;;;;;;;14.23;76.95;97118.17;1728123;83;25661;-79
2022/08/26 03:31:28;;;;;;;31.35;13.45;;;;;;;14.17;76.87;97121.84;1727810;81;26038;-79
2022/08/26 03:33:55;;;;;;;25.00;12.55;;;;;;;14.12;76.91;97110.37;1711735;83;26359;-79
2022/08/26 03:36:22;;;;;;;25.57;13.25;;;;;;;14.11;77.04;97110.61;1755082;81;25401;-79
2022/08/26 03:38:48;;;;;;;22.15;12.73;;;;;;;14.08;77.01;97107.00;1755177;81;25745;-79
2022/08/26 03:41:16;;;;;;;26.65;13.40;;;;;;;14.09;76.97;97111.38;1755246;81;27990;-79
2022/08/26 03:43:43;;;;;;;25.43;11.93;;;;;;;14.09;77.04;97114.09;1754915;81;25794;-79
2022/08/26 03:46:11;;;;;;;23.10;11.25;;;;;;;14.06;77.08;97108.07;1754909;81;25726;-79
2022/08/26 03:48:38;;;;;;;26.02;12.28;;;;;;;14.04;77.19;97111.55;1755260;80;25725;-77
2022/08/26 03:51:16;;;;;;;26.50;11.28;;;;;;;14.04;77.23;97111.55;1755101;81;25670;-78
2022/08/26 03:53:43;;;;;;;16.75;9.50;;;;;;;14.02;77.21;97112.84;1753972;81;28109;-79
2022/08/26 03:56:11;;;;;;;16.12;7.85;;;;;;;14.01;77.23;97116.62;1755040;81;25654;-77
2022/08/26 03:58:38;;;;;;;13.85;8.13;;;;;;;13.99;77.20;97107.39;1755245;81;25723;-75
2022/08/26 04:01:05;;;;;;;16.40;8.85;;;;;;;13.97;77.13;97108.16;1755395;81;25674;-76
2022/08/26 04:06:17;;;;;;;16.27;8.53;;;;;;;13.96;77.20;97109.22;1754915;81;27401;-76
2022/08/26 04:08:44;;;;;;;21.23;8.68;;;;;;;13.93;77.23;97108.34;1755133;81;26227;-76
2022/08/26 04:11:18;;;;;;;16.12;9.20;;;;;;;13.92;77.27;97115.36;1755168;80;25925;-76
2022/08/26 04:13:46;;;;;;;15.60;9.35;;;;;;;13.90;77.39;97110.70;1753283;81;25461;-76
2022/08/26 04:16:16;;;;;;;26.25;12.30;;;;;;;13.89;77.42;97116.66;1755227;81;25766;-76
2022/08/26 04:18:43;;;;;;;31.33;13.00;;;;;;;13.89;77.57;97107.16;1755107;81;28245;-76
2022/08/26 04:21:10;;;;;;;22.35;10.95;;;;;;;13.90;77.63;97105.27;1755172;81;25498;-76
2022/08/26 04:23:38;;;;;;;26.80;11.75;;;;;;;13.90;77.61;97112.87;1755192;81;25674;-76
2022/08/26 04:26:05;;;;;;;21.37;11.60;;;;;;;13.90;77.71;97112.05;1754950;81;25734;-76
2022/08/26 04:28:32;;;;;;;23.55;11.00;;;;;;;13.87;77.74;97111.20;1754882;81;25618;-76
2022/08/26 04:30:59;;;;;;;23.98;9.93;;;;;;;13.86;77.77;97116.33;1755106;81;28166;-76
2022/08/26 04:33:25;;;;;;;21.33;10.70;;;;;;;13.81;77.94;97115.67;1757913;81;26161;-75
2022/08/26 04:36:01;;;;;;;20.27;9.18;;;;;;;13.84;78.07;97119.28;1760437;80;25705;-75
2022/08/26 04:38:28;;;;;;;18.30;9.20;;;;;;;13.87;78.17;97109.31;1760485;81;25847;-76
2022/08/26 04:40:56;;;;;;;18.98;9.30;;;;;;;13.90;78.22;97116.95;1760853;81;25693;-76
2022/08/26 04:43:29;;;;;;;15.63;8.50;;;;;;;13.93;78.25;97112.41;1760865;81;27370;-77
2022/08/26 04:45:52;;;;;;;18.12;9.90;;;;;;;13.94;78.32;97112.70;1758014;81;25843;-76
2022/08/26 04:48:19;;;;;;;18.87;9.70;;;;;;;13.99;78.39;97110.64;1760898;81;25761;-77
2022/08/26 04:50:46;;;;;;;23.75;10.82;;;;;;;14.03;78.40;97113.97;1761085;81;25706;-76
2022/08/26 04:53:13;;;;;;;25.97;11.12;;;;;;;14.06;78.41;97110.78;1760936;81;25903;-76
2022/08/26 04:55:40;;;;;;;19.25;9.20;;;;;;;14.09;78.40;97114.91;1760821;81;27441;-77
2022/08/26 04:58:10;;;;;;;16.62;9.95;;;;;;;14.12;78.39;97109.54;1760515;81;25670;-76
2022/08/26 05:00:37;;;;;;;20.10;10.03;;;;;;;14.13;78.46;97109.27;1760863;81;25864;-76
2022/08/26 05:03:03;;;;;;;18.98;9.18;;;;;;;14.17;78.55;97102.84;1760904;80;25733;-76
2022/08/26 05:05:30;;;;;;;18.80;10.08;;;;;;;14.20;78.53;97096.94;1761207;81;25744;-76
2022/08/26 05:07:57;;;;;;;26.20;10.70;;;;;;;14.24;78.56;97103.54;1760770;81;27365;-77
2022/08/26 05:10:24;;;;;;;19.50;10.93;;;;;;;14.28;78.52;97103.33;1760988;80;25263;-76
2022/08/26 05:12:50;;;;;;;22.48;11.05;;;;;;;14.31;78.55;97100.13;1760767;81;25691;-76
2022/08/26 05:15:17;;;;;;;23.02;11.57;;;;;;;14.34;78.61;97098.30;1760823;80;26128;-76
2022/08/26 05:17:43;;;;;;;21.48;11.08;;;;;;;14.39;78.72;97099.23;1761008;81;25777;-76
2022/08/26 05:20:11;;;;;;;17.95;11.57;;;;;;;14.44;78.72;97093.62;1760662;81;27473;-77
2022/08/26 05:22:37;;;;;;;17.77;10.55;;;;;;;14.48;78.74;97092.91;1760818;80;25480;-77
2022/08/26 05:25:04;;;;;;;22.22;11.30;;;;;;;14.53;78.81;97091.63;1760608;80;25677;-76
2022/08/26 05:27:31;;;;;;;20.52;10.50;;;;;;;14.58;78.85;97097.69;1760740;81;25546;-76
2022/08/26 05:29:58;;;;;;;20.02;9.55;;;;;;;14.63;78.84;97095.88;1760668;81;25811;-77
2022/08/26 05:32:25;;;;;;;16.23;9.53;;;;;;;14.68;78.87;97090.55;1760827;81;27434;-76
2022/08/26 05:34:55;;;;;;;16.73;8.48;;;;;;;14.74;78.98;97088.19;1760649;80;25738;-76
2022/08/26 05:37:22;;;;;;;20.85;9.63;;;;;;;14.78;79.02;97083.92;1760860;81;25678;-76
2022/08/26 05:39:49;;;;;;;18.02;10.15;;;;;;;14.85;79.17;97087.03;1760917;81;25447;-76
2022/08/26 05:42:15;;;;;;;17.90;9.05;;;;;;;14.92;79.22;97086.32;1760897;81;25878;-76
2022/08/26 05:44:42;;;;;;;22.20;10.60;;;;;;;14.98;79.34;97075.81;1760959;81;28156;-76
2022/08/26 05:47:08;;;;;;;19.23;8.90;;;;;;;15.04;79.49;97076.20;1760875;81;25890;-76
2022/08/26 05:49:35;;;;;;;16.97;9.13;;;;;;;15.08;79.56;97075.46;1761041;81;25743;-76
2022/08/26 05:52:02;;;;;;;23.73;10.93;;;;;;;15.14;79.56;97076.34;1760852;81;26477;-76
2022/08/26 05:54:29;;;;;;;22.45;10.85;;;;;;;15.21;79.62;97077.56;1760890;81;25834;-76
2022/08/26 05:56:55;;;;;;;21.65;11.25;;;;;;;15.27;79.65;97078.73;1760860;81;28203;-77
2022/08/26 05:59:22;;;;;;;20.75;10.68;;;;;;;15.34;79.70;97077.19;1760525;80;25683;-77
2022/08/26 06:01:48;;;;;;;25.82;10.93;;;;;;;15.39;79.72;97069.94;1760597;80;25781;-76
2022/08/26 06:04:16;;;;;;;21.17;10.75;;;;;;;15.43;79.68;97062.94;1760944;81;26069;-75
2022/08/26 06:06:42;;;;;;;24.02;10.08;;;;;;;15.52;79.57;97069.30;1760873;81;25224;-76
2022/08/26 06:09:09;;;;;;;20.85;10.03;;;;;;;15.60;79.42;97063.44;1760902;81;27424;-77
2022/08/26 06:11:36;;;;;;;17.27;9.93;;;;;;;15.67;79.50;97064.10;1760592;81;25658;-76
2022/08/26 06:14:06;;;;;;;22.67;9.25;;;;;;;15.74;79.56;97068.81;1760790;81;25765;-76
2022/08/26 06:16:37;;;;;;;18.12;8.73;;;;;;;15.80;79.54;97063.20;1760992;81;25671;-76
2022/08/26 06:19:06;;;;;;;18.40;9.33;;;;;;;15.89;79.33;97062.20;1760866;81;25671;-77
2022/08/26 06:21:37;;;;;;;22.82;9.58;;;;;;;15.95;79.33;97065.27;1760919;81;28191;-77
2022/08/26 06:26:56;;;;;;;13.93;7.85;;;;;;;16.10;79.73;97060.01;1760653;81;25685;-76
2022/08/26 06:29:25;;;;;;;12.33;7.95;;;;;;;16.20;79.79;97060.12;1743535;81;25699;-77
2022/08/26 06:31:54;;;;;;;12.35;8.10;;;;;;;16.30;79.75;97058.61;1761008;81;25768;-77
2022/08/26 06:34:20;;;;;;;10.98;7.58;;;;;;;16.40;79.71;97058.71;1757059;81;27444;-76
2022/08/26 06:36:48;;;;;;;15.63;7.75;;;;;;;16.48;79.72;97055.52;1732019;81;25702;-76
2022/08/26 06:39:17;;;;;;;11.28;7.47;;;;;;;16.57;79.69;97060.23;1731210;81;25756;-76
2022/08/26 06:41:47;;;;;;;20.77;8.05;;;;;;;16.64;79.34;97060.08;1738745;81;25722;-77
2022/08/26 06:44:15;;;;;;;14.60;7.15;;;;;;;16.72;79.40;97056.05;1652948;85;25821;-75
2022/08/26 06:46:42;;;;;;;14.43;8.05;;;;;;;16.81;79.29;97058.03;1712549;83;28291;-75
2022/08/26 06:49:09;;;;;;;14.20;7.85;;;;;;;16.93;79.22;97056.50;1712322;83;25659;-75
2022/08/26 06:51:39;;;;;;;13.70;7.85;;;;;;;17.05;79.17;97054.95;1712269;83;25769;-74
2022/08/26 06:54:07;;;;;;;12.25;7.30;;;;;;;17.14;78.91;97065.69;1712375;83;25846;-74
2022/08/26 06:56:41;;;;;;;12.18;7.50;;;;;;;17.24;78.58;97063.84;1712364;83;25774;-75
2022/08/26 06:59:10;;;;;;;14.13;8.33;;;;;;;17.35;78.47;97068.01;1673734;85;27380;-75
2022/08/26 07:01:44;;;;;;;18.80;7.72;;;;;;;17.45;78.17;97057.98;1673715;85;25921;-76
2022/08/26 07:04:15;;;;;;;17.55;7.95;;;;;;;17.55;78.13;97053.94;1673667;85;25886;-76
2022/08/26 07:06:47;;;;;;;13.15;7.45;;;;;;;17.69;78.20;97057.05;1673623;84;25826;-75
2022/08/26 07:09:12;;;;;;;9.95;7.75;;;;;;;17.80;77.98;97057.38;1660665;84;25613;-76
2022/08/26 07:11:39;;;;;;;18.90;8.28;;;;;;;17.94;77.93;97060.45;1642828;85;27477;-76
2022/08/26 07:14:06;;;;;;;18.80;8.75;;;;;;;18.05;77.76;97055.85;1642860;87;25749;-77
2022/08/26 07:16:33;;;;;;;14.50;7.47;;;;;;;18.16;77.55;97054.80;1694768;84;25330;-75
2022/08/26 07:19:00;;;;;;;20.25;7.35;;;;;;;18.28;77.35;97054.84;1670357;85;25486;-76
2022/08/26 07:21:27;;;;;;;16.25;7.22;;;;;;;18.41;77.10;97046.67;1643186;86;25819;-76
2022/08/26 07:23:54;;;;;;;17.07;6.90;;;;;;;18.55;76.79;97045.61;1642905;87;28287;-76
2022/08/26 07:26:27;;;;;;;17.23;6.72;;;;;;;18.67;76.56;97036.64;1694616;84;25790;-76
2022/08/26 07:28:56;;;;;;;12.33;6.12;;;;;;;18.78;76.10;97032.82;1611807;87;25978;-76
2022/08/26 07:31:26;;;;;;;14.75;6.40;;;;;;;18.93;75.72;97031.47;1611312;89;25836;-78
2022/08/26 07:33:53;;;;;;;15.23;6.15;;;;;;;19.08;75.56;97024.36;1611303;88;25876;-76
2022/08/26 07:36:22;;;;;;;14.95;6.72;;;;;;;19.26;74.99;97027.87;1611571;89;27495;-78
2022/08/26 07:38:51;;;;;;;17.07;6.67;;;;;;;19.45;74.93;97024.83;1611651;89;25406;-76
2022/08/26 07:41:21;;;;;;;11.97;6.20;;;;;;;19.73;74.46;97025.61;1613425;88;26400;-77
2022/08/26 07:43:48;;;;;;;10.78;5.62;;;;;;;20.07;74.05;97022.19;1614551;87;26144;-76
2022/08/26 07:46:18;;;;;;;15.83;5.87;;;;;;;20.51;73.07;97021.45;1614555;88;25787;-77
2022/08/26 07:48:44;;;;;;;17.35;5.15;;;;;;;20.94;72.25;97017.82;1614338;88;28149;-77
2022/08/26 07:51:13;;;;;;;13.93;4.87;;;;;;;21.40;71.22;97016.05;1614217;87;25724;-77
2022/08/26 07:53:39;;;;;;;13.90;4.90;;;;;;;21.87;70.47;97014.70;1614467;88;25838;-76
2022/08/26 07:56:06;;;;;;;14.47;5.15;;;;;;;22.32;69.95;97012.53;1633729;86;25821;-77
2022/08/26 07:58:32;;;;;;;8.50;5.20;;;;;;;22.79;69.29;97006.09;1646533;87;25868;-78
2022/08/26 08:00:59;;;;;;;11.73;5.08;;;;;;;23.22;68.43;97006.73;1648225;85;28581;-75
2022/08/26 08:03:27;;;;;;;8.60;4.60;;;;;;;23.64;67.84;97005.73;1657739;85;25797;-77
2022/08/26 08:05:54;;;;;;;11.30;4.80;;;;;;;24.00;66.67;96999.51;1653884;85;25888;-77
2022/08/26 08:08:21;;;;;;;13.03;4.40;;;;;;;24.40;65.85;96999.20;1657742;85;26191;-76
2022/08/26 08:10:50;;;;;;;13.20;4.72;;;;;;;24.77;65.23;96995.32;1657991;85;26059;-78
2022/08/26 08:13:18;;;;;;;12.95;5.20;;;;;;;25.13;64.24;96995.30;1655148;85;27442;-76
2022/08/26 08:15:44;;;;;;;13.35;4.87;;;;;;;25.51;63.80;96985.20;1658414;85;25894;-77
2022/08/26 08:18:11;;;;;;;14.80;5.15;;;;;;;25.87;62.67;96988.64;1660523;85;25622;-77
2022/08/26 08:20:37;;;;;;;10.98;4.50;;;;;;;26.21;62.55;96985.15;1658478;85;25823;-78
2022/08/26 08:23:04;;;;;;;15.30;5.75;;;;;;;26.56;61.65;96986.08;1661599;85;25795;-77
2022/08/26 08:25:33;;;;;;;7.67;4.17;;;;;;;26.89;60.92;96984.45;1702664;82;27486;-77
2022/08/26 08:28:00;;;;;;;11.15;5.00;;;;;;;27.20;60.23;96981.49;1737026;82;26244;-77
2022/08/26 08:30:27;;;;;;;9.63;4.62;;;;;;;27.51;59.90;96971.57;1736935;82;25734;-76
2022/08/26 08:32:53;;;;;;;8.15;3.92;;;;;;;27.82;59.22;96969.92;1737151;82;25782;-77
2022/08/26 08:35:21;;;;;;;14.15;5.20;;;;;;;28.12;58.73;96971.33;1768308;80;25784;-76
2022/08/26 08:37:54;;;;;;;15.13;4.35;;;;;;;28.39;58.39;96967.25;1755182;81;28076;-77
2022/08/26 08:40:24;;;;;;;13.05;4.70;;;;;;;28.61;57.60;96969.73;1775030;80;25203;-77
2022/08/26 08:42:59;;;;;;;9.90;4.30;;;;;;;28.79;57.29;96964.29;1775285;80;25709;-77
2022/08/26 08:45:42;;;;;;;10.05;4.75;;;;;;;29.00;56.70;96961.48;1772415;80;25692;-77
2022/08/26 08:48:19;;;;;;;10.63;4.92;;;;;;;29.15;56.59;96965.59;1770955;80;25226;-77
2022/08/26 08:50:50;;;;;;;8.15;4.25;;;;;;;29.46;55.59;96959.59;1771299;80;27385;-77
2022/08/26 08:53:30;;;;;;;8.55;5.15;;;;;;;29.60;55.85;96953.92;1695150;84;25500;-77
2022/08/26 08:56:25;;;;;;;11.12;5.62;;;;;;;29.89;55.65;96956.27;1695212;84;25858;-77
2022/08/26 08:59:00;;;;;;;9.48;5.17;;;;;;;30.17;54.75;96954.45;1695225;84;25816;-76
2022/08/26 09:01:43;;;;;;;11.22;5.33;;;;;;;30.44;54.14;96951.50;1692348;84;25819;-78
2022/08/26 09:04:47;;;;;;;10.45;4.92;;;;;;;30.69;53.63;96957.85;1694879;84;28467;-77
2022/08/26 09:07:28;;;;;;;14.25;5.60;;;;;;;30.89;53.16;96951.31;1695098;84;25848;-79
2022/08/26 09:10:27;;;;;;;11.10;5.13;;;;;;;31.07;52.39;96951.22;1618995;88;25823;-77
2022/08/26 09:12:54;;;;;;;10.00;4.80;;;;;;;31.22;51.93;96948.86;1582828;90;26749;-76
2022/08/26 09:15:37;;;;;;;9.28;4.62;;;;;;;31.34;51.68;96948.22;1582960;90;25797;-77
2022/08/26 09:18:36;;;;;;;9.93;4.37;;;;;;;31.46;51.55;96948.73;1540078;92;27496;-76
2022/08/26 09:21:08;;;;;;;9.55;4.20;;;;;;;31.59;51.10;96936.33;1540826;92;25452;-76
2022/08/26 09:23:38;;;;;;;11.80;4.12;;;;;;;31.53;50.08;96939.72;1540980;93;25821;-77
2022/08/26 09:26:40;;;;;;;9.58;4.37;;;;;;;31.53;50.08;96939.72;1516782;94;25746;-77
2022/08/26 09:29:29;;;;;;;9.80;4.60;;;;;;;31.54;49.80;96939.38;1518691;93;25556;-79
2022/08/26 09:32:20;;;;;;;7.95;4.00;;;;;;;31.54;49.50;96935.19;1505538;93;27679;-77
2022/08/26 09:35:00;;;;;;;8.03;4.03;;;;;;;31.61;49.45;96934.58;1536204;92;26948;-76
2022/08/26 09:37:46;;;;;;;9.68;3.62;;;;;;;31.72;49.18;96927.31;1536186;92;25803;-77
2022/08/26 09:40:25;;;;;;;8.53;3.92;;;;;;;31.79;49.18;96926.91;1458134;96;25923;-77
2022/08/26 09:43:21;;;;;;;8.23;3.72;;;;;;;31.91;48.52;96925.18;1481897;95;25899;-77
2022/08/26 09:45:53;;;;;;;7.92;3.27;;;;;;;31.99;47.79;96924.20;1495302;95;27389;-77
2022/08/26 09:48:30;;;;;;;10.93;3.75;;;;;;;32.05;47.72;96918.55;1463792;97;25878;-77
2022/08/26 09:51:04;;;;;;;7.28;3.50;;;;;;;32.07;46.95;96913.42;1445358;97;25948;-77
2022/08/26 09:53:39;;;;;;;8.05;3.90;;;;;;;32.17;46.31;96914.25;1428978;99;26033;-78
2022/08/26 09:56:16;;;;;;;8.50;3.85;;;;;;;32.24;46.48;96917.84;1460186;97;25948;-76
2022/08/26 09:58:46;;;;;;;5.75;3.58;;;;;;;32.34;45.83;96919.48;1452826;98;27676;-75
2022/08/26 10:01:40;;;;;;;9.53;4.10;;;;;;;32.44;45.97;96918.09;1465673;97;25925;-76
2022/08/26 10:04:14;;;;;;;10.03;3.87;;;;;;;32.52;45.39;96910.89;1429858;100;25972;-74
2022/08/26 10:06:58;;;;;;;11.25;3.52;;;;;;;32.61;45.11;96907.88;1445359;95;25903;-74
2022/08/26 10:09:26;;;;;;;7.00;3.47;;;;;;;32.66;44.60;96913.77;1478944;95;25895;-76
2022/08/26 10:12:00;;;;;;;7.10;3.65;;;;;;;32.75;44.68;96911.59;1474291;95;27431;-76
2022/08/26 10:14:44;;;;;;;10.80;3.83;;;;;;;32.76;43.94;96914.61;1462153;96;25953;-77
2022/08/26 10:17:40;;;;;;;7.00;3.95;;;;;;;32.80;43.85;96912.72;1440305;98;26004;-75
2022/08/26 10:20:17;;;;;;;10.95;4.15;;;;;;;32.83;43.40;96906.40;1428966;98;25840;-78
2022/08/26 10:23:11;;;;;;;10.00;4.30;;;;;;;32.86;42.73;96908.44;1455109;98;25898;-76
2022/08/26 10:25:49;;;;;;;9.03;4.15;;;;;;;32.91;42.86;96901.16;1424685;99;27569;-76
2022/08/26 10:28:39;;;;;;;15.53;4.50;;;;;;;33.03;42.93;96906.59;1435815;98;25810;-76
2022/08/26 10:31:35;;;;;;;9.85;4.35;;;;;;;33.09;42.12;96893.92;1487123;96;25875;-77
2022/08/26 10:34:02;;;;;;;8.33;3.72;;;;;;;33.15;41.76;96903.64;1486949;95;25788;-77
2022/08/26 10:36:49;;;;;;;6.85;4.03;;;;;;;33.22;42.20;96898.75;1504036;94;25825;-75
2022/08/26 10:39:32;;;;;;;7.20;3.62;;;;;;;33.17;41.49;96890.09;1506650;94;27472;-78
2022/08/26 10:42:04;;;;;;;11.88;3.83;;;;;;;33.18;41.50;96892.31;1381032;102;25931;-78
2022/08/26 10:44:34;;;;;;;9.63;4.22;;;;;;;33.29;41.88;96892.53;1376036;103;25991;-76
2022/08/26 10:47:17;;;;;;;8.55;3.95;;;;;;;33.38;41.96;96886.91;1389042;103;26147;-76
2022/08/26 10:49:46;;;;;;;10.40;3.90;;;;;;;33.45;41.52;96886.24;1397796;99;25880;-76
2022/08/26 10:52:20;;;;;;;7.97;4.20;;;;;;;33.44;41.50;96887.42;1427926;99;26843;-76
2022/08/26 10:55:13;;;;;;;8.10;3.95;;;;;;;33.45;41.27;96884.23;1427981;99;25884;-78
2022/08/26 10:57:56;;;;;;;9.45;4.53;;;;;;;33.44;40.84;96883.23;1443521;98;25869;-76
2022/08/26 11:03:44;;;;;;;11.70;3.35;;;;;;;33.45;41.62;96883.45;1462838;96;25795;-77
2022/08/26 11:06:30;;;;;;;8.25;3.30;;;;;;;33.42;40.44;96881.39;1459396;96;27451;-77
2022/08/26 11:09:05;;;;;;;8.08;3.40;;;;;;;33.41;39.28;96886.77;1462827;98;26608;-77
2022/08/26 11:11:44;;;;;;;5.92;3.50;;;;;;;33.33;37.99;96882.23;1444267;97;25862;-77
2022/08/26 11:14:22;;;;;;;6.12;3.62;;;;;;;33.22;37.63;96884.19;1442714;98;25930;-77
2022/08/26 11:16:55;;;;;;;7.95;3.67;;;;;;;33.28;38.65;96875.53;1465151;96;25916;-76
2022/08/26 11:19:54;;;;;;;12.10;3.65;;;;;;;33.34;39.41;96876.83;1464325;93;27482;-76
2022/08/26 11:22:32;;;;;;;10.75;3.67;;;;;;;33.28;38.13;96878.33;1532349;92;25891;-77
2022/08/26 11:25:03;;;;;;;9.05;3.80;;;;;;;33.19;37.88;96872.95;1518557;93;25896;-76
2022/08/26 11:27:40;;;;;;;;;;;;;;;33.19;37.32;96869.56;1520758;93;25839;-76
2022/08/26 11:30:18;;;;;;;8.88;3.50;;;;;;;33.24;36.26;96863.69;1500739;94;25815;-76
2022/08/26 11:32:53;;;;;;;10.43;4.00;;;;;;;33.20;37.11;96863.39;1504735;95;27467;-77
2022/08/26 11:35:25;;;;;;;7.25;3.20;;;;;;;33.16;37.38;96862.50;1554505;91;25897;-77
2022/08/26 11:37:56;;;;;;;9.98;3.72;;;;;;;33.12;36.76;96856.03;1561846;90;25819;-76
2022/08/26 11:40:37;;;;;;;6.78;3.40;;;;;;;33.06;36.22;96854.73;1589709;89;25811;-80
2022/08/26 11:43:21;;;;;;;8.63;3.83;;;;;;;32.98;35.97;96855.16;1636770;87;25740;-77
2022/08/26 11:46:07;;;;;;;11.70;3.40;;;;;;;32.94;36.36;96852.91;1634268;87;27622;-76
2022/08/26 11:48:41;;;;;;;7.33;3.47;;;;;;;32.99;36.78;96851.19;1637019;87;25737;-78
2022/08/26 11:51:21;;;;;;;9.88;3.27;;;;;;;33.05;36.78;96849.72;1598568;89;25975;-76
2022/08/26 11:53:49;;;;;;;7.95;3.50;;;;;;;33.10;36.97;96845.80;1564432;90;26523;-78
2022/08/26 11:56:27;;;;;;;9.35;3.60;;;;;;;33.10;36.52;96843.00;1598983;89;25930;-76
2022/08/26 11:58:57;;;;;;;8.65;3.87;;;;;;;33.00;36.00;96843.03;1596352;89;27510;-77
2022/08/26 12:01:31;;;;;;;9.33;4.42;;;;;;;32.94;35.92;96840.33;1564462;90;25901;-77